createdAt,value
2022-12-04T00:01:15.294Z,5.57
2022-12-04T00:03:15.302Z,5.83
2022-12-04T00:05:15.268Z,5.72
2022-12-04T00:07:15.231Z,5.45
2022-12-04T00:10:08.810Z,5.53
2022-12-04T00:12:08.781Z,5.77
2022-12-04T00:14:08.844Z,5.67
2022-12-04T00:16:08.850Z,5.82
2022-12-04T00:18:08.782Z,5.91
2022-12-04T00:20:08.786Z,5.99
2022-12-04T00:22:08.801Z,5.89
2022-12-04T00:24:57.398Z,5.74
2022-12-04T00:26:57.420Z,5.95
2022-12-04T00:28:57.410Z,5.71
2022-12-04T00:30:57.397Z,5.48
2022-12-04T00:32:57.384Z,5.49
2022-12-04T00:34:57.377Z,5.78
2022-12-04T00:36:57.370Z,5.93
2022-12-04T00:38:57.372Z,6.02
2022-12-04T00:40:27.102Z,6.04
2022-12-04T00:42:26.896Z,6.09
2022-12-04T00:44:26.880Z,6.18
2022-12-04T00:46:26.976Z,6.2
2022-12-04T00:48:26.996Z,6.17
2022-12-04T00:50:27.083Z,6.15
2022-12-04T00:52:27.160Z,6.24
2022-12-04T00:55:49.768Z,6.2
2022-12-04T00:57:49.742Z,6.13
2022-12-04T00:59:49.736Z,6.17
2022-12-04T01:01:49.740Z,6.28
2022-12-04T01:03:49.728Z,6.27
2022-12-04T01:05:49.756Z,5.95
2022-12-04T01:07:49.800Z,5.63
2022-12-04T01:10:47.440Z,6.07
2022-12-04T01:12:47.448Z,6.21
2022-12-04T01:14:47.425Z,6.25
2022-12-04T01:16:47.470Z,6.27
2022-12-04T01:18:47.417Z,6.18
2022-12-04T01:20:47.456Z,6.26
2022-12-04T01:22:47.421Z,6.22
2022-12-04T01:26:30.485Z,6.19
2022-12-04T01:28:30.444Z,6.12
2022-12-04T01:30:30.425Z,6.36
2022-12-04T01:32:30.451Z,6.34
2022-12-04T01:34:30.410Z,6.29
2022-12-04T01:36:30.455Z,6.38
2022-12-04T01:38:30.392Z,6.44
2022-12-04T01:40:50.462Z,6.43
2022-12-04T01:42:50.192Z,6.36
2022-12-04T01:44:50.543Z,6.35
2022-12-04T01:46:50.484Z,6.29
2022-12-04T01:48:50.428Z,6.38
2022-12-04T01:50:50.592Z,6.39
2022-12-04T01:52:50.230Z,6.37
2022-12-04T01:54:50.238Z,6.3
2022-12-04T01:56:46.992Z,6.36
2022-12-04T01:58:47.009Z,6.42
2022-12-04T02:00:51.014Z,6.42
2022-12-04T02:02:47.238Z,6.5
2022-12-04T02:04:47.103Z,6.42
2022-12-04T02:06:46.972Z,6.38
2022-12-04T02:08:47.312Z,6.27
2022-12-04T02:11:19.684Z,6.27
2022-12-04T02:13:19.514Z,6.24
2022-12-04T02:15:19.544Z,6.18
2022-12-04T02:17:19.587Z,6.23
2022-12-04T02:19:19.579Z,6.24
2022-12-04T02:21:19.528Z,6.15
2022-12-04T02:23:19.529Z,6.06
2022-12-04T02:27:06.565Z,5.98
2022-12-04T02:29:06.532Z,5.99
2022-12-04T02:31:06.611Z,6.01
2022-12-04T02:33:06.536Z,6
2022-12-04T02:35:06.526Z,6
2022-12-04T02:37:06.586Z,5.93
2022-12-04T02:39:06.510Z,5.95
2022-12-04T02:41:58.600Z,5.86
2022-12-04T02:43:58.515Z,5.91
2022-12-04T02:45:58.582Z,5.85
2022-12-04T02:47:58.537Z,5.88
2022-12-04T02:49:58.806Z,5.78
2022-12-04T02:51:58.567Z,5.78
2022-12-04T02:53:58.525Z,5.73
2022-12-04T02:56:50.683Z,5.58
2022-12-04T02:58:50.685Z,5.47
2022-12-04T03:00:50.716Z,5.53
2022-12-04T03:02:50.709Z,5.54
2022-12-04T03:04:50.734Z,5.52
2022-12-04T03:06:50.757Z,5.45
2022-12-04T03:08:50.682Z,5.43
2022-12-04T03:12:35.712Z,5.39
2022-12-04T03:14:35.687Z,5.23
2022-12-04T03:16:35.766Z,4.99
2022-12-04T03:18:35.661Z,5.12
2022-12-04T03:20:35.661Z,5.01
2022-12-04T03:22:35.736Z,5.13
2022-12-04T03:24:35.670Z,5.12
2022-12-04T03:27:40.725Z,5.16
2022-12-04T03:29:40.668Z,5.16
2022-12-04T03:31:40.741Z,5.25
2022-12-04T03:33:40.703Z,5.2
2022-12-04T03:35:40.747Z,5.17
2022-12-04T03:37:40.713Z,5.14
2022-12-04T03:39:40.757Z,5.03
2022-12-04T03:42:51.120Z,5.18
2022-12-04T03:44:51.366Z,5.14
2022-12-04T03:46:51.302Z,5.18
2022-12-04T03:48:51.207Z,5.17
2022-12-04T03:50:51.162Z,5.25
2022-12-04T03:52:51.421Z,5.18
2022-12-04T03:54:51.230Z,5.22
2022-12-04T03:57:50.373Z,5.28
2022-12-04T03:59:55.359Z,5.23
2022-12-04T04:01:50.426Z,5.16
2022-12-04T04:03:50.347Z,5.27
2022-12-04T04:05:50.331Z,5.31
2022-12-04T04:07:50.676Z,5.32
2022-12-04T04:09:50.389Z,5.28
2022-12-04T04:13:21.651Z,5.28
2022-12-04T04:15:21.645Z,5.27
2022-12-04T04:17:21.698Z,5.19
2022-12-04T04:19:21.822Z,5.16
2022-12-04T04:21:21.769Z,5.17
2022-12-04T04:23:21.858Z,5.14
2022-12-04T04:25:21.705Z,5.11
2022-12-04T04:28:04.101Z,5.06
2022-12-04T04:30:04.092Z,4.98
2022-12-04T04:32:04.219Z,4.94
2022-12-04T04:34:04.198Z,4.9
2022-12-04T04:36:04.098Z,4.82
2022-12-04T04:38:04.252Z,4.77
2022-12-04T04:40:04.066Z,4.62
2022-12-04T04:43:25.443Z,4.62
2022-12-04T04:45:25.740Z,4.61
2022-12-04T04:47:25.402Z,4.44
2022-12-04T04:49:25.433Z,4.32
2022-12-04T04:51:25.567Z,4.34
2022-12-04T04:53:25.467Z,4.34
2022-12-04T04:55:25.384Z,4.34
2022-12-04T04:58:11.212Z,4.43
2022-12-04T05:00:11.258Z,4.42
2022-12-04T05:02:11.373Z,4.4
2022-12-04T05:04:11.369Z,4.44
2022-12-04T05:06:11.183Z,4.43
2022-12-04T05:08:11.294Z,4.34
2022-12-04T05:10:11.239Z,4.39
2022-12-04T05:13:16.016Z,4.28
2022-12-04T05:15:16.070Z,4.12
2022-12-04T05:17:16.051Z,4.13
2022-12-04T05:19:16.030Z,4.09
2022-12-04T05:21:16.323Z,4.26
2022-12-04T05:23:15.992Z,4.35
2022-12-04T05:25:16.017Z,4.58
2022-12-04T05:28:23.937Z,4.71
2022-12-04T05:30:23.993Z,4.82
2022-12-04T05:32:23.917Z,4.92
2022-12-04T05:34:23.913Z,4.95
2022-12-04T05:36:23.933Z,4.87
2022-12-04T05:38:23.943Z,4.97
2022-12-04T05:40:23.963Z,4.99
2022-12-04T05:44:09.915Z,5.04
2022-12-04T05:46:09.942Z,5.03
2022-12-04T05:48:09.868Z,4.91
2022-12-04T05:50:09.879Z,4.96
2022-12-04T05:52:09.878Z,5.05
2022-12-04T05:54:09.839Z,4.98
2022-12-04T05:56:09.942Z,5.04
2022-12-04T05:59:28.392Z,4.94
2022-12-04T06:01:28.436Z,5.05
2022-12-04T06:03:28.359Z,5.09
2022-12-04T06:05:28.358Z,4.99
2022-12-04T06:07:28.430Z,5.03
2022-12-04T06:09:28.375Z,5.03
2022-12-04T06:11:28.411Z,5.13
2022-12-04T06:14:03.212Z,5.3
2022-12-04T06:16:03.396Z,5.34
2022-12-04T06:18:03.415Z,5.33
2022-12-04T06:20:08.118Z,5.48
2022-12-04T06:22:03.366Z,5.65
2022-12-04T06:24:03.353Z,5.68
2022-12-04T06:26:06.894Z,5.82
2022-12-04T06:29:37.038Z,5.78
2022-12-04T06:31:37.133Z,5.79
2022-12-04T06:33:37.108Z,5.9
2022-12-04T06:35:37.301Z,5.82
2022-12-04T06:37:37.098Z,5.98
2022-12-04T06:39:37.140Z,6.04
2022-12-04T06:41:37.031Z,6.24
2022-12-04T06:44:28.737Z,6.3
2022-12-04T06:46:28.888Z,6.24
2022-12-04T06:48:28.761Z,6.23
2022-12-04T06:50:28.834Z,6.08
2022-12-04T06:52:28.763Z,6.14
2022-12-04T06:54:28.721Z,5.77
2022-12-04T06:56:28.721Z,5.64
2022-12-04T06:59:52.116Z,6.03
2022-12-04T07:01:52.225Z,6.13
2022-12-04T07:03:52.119Z,6.39
2022-12-04T07:05:52.180Z,6.6
2022-12-04T07:07:52.177Z,6.68
2022-12-04T07:09:52.188Z,6.68
2022-12-04T07:11:52.097Z,6.34
2022-12-04T07:14:34.920Z,6.04
2022-12-04T07:16:40.179Z,5.92
2022-12-04T07:18:34.885Z,6.08
2022-12-04T07:20:34.907Z,6.06
2022-12-04T07:22:34.911Z,6.06
2022-12-04T07:24:34.881Z,5.88
2022-12-04T07:26:34.880Z,5.74
2022-12-04T07:29:52.453Z,5.86
2022-12-04T07:31:52.423Z,6
2022-12-04T07:33:52.360Z,6.06
2022-12-04T07:35:52.377Z,6.42
2022-12-04T07:37:52.589Z,6.43
2022-12-04T07:39:52.540Z,6.24
2022-12-04T07:41:52.507Z,6.42
2022-12-04T07:45:21.881Z,6.75
2022-12-04T07:47:21.831Z,6.63
2022-12-04T07:49:21.832Z,6.76
2022-12-04T07:51:21.816Z,6.96
2022-12-04T07:53:21.850Z,6.88
2022-12-04T07:55:23.212Z,6.53
2022-12-04T07:57:21.811Z,6.11
2022-12-04T08:00:26.450Z,6.53
2022-12-04T08:02:26.456Z,6.57
2022-12-04T08:04:26.443Z,6.34
2022-12-04T08:06:26.429Z,6.25
2022-12-04T08:08:26.508Z,6.25
2022-12-04T08:10:26.446Z,6.16
2022-12-04T08:12:26.482Z,6.3
2022-12-04T08:15:15.088Z,6.48
2022-12-04T08:17:15.111Z,6.43
2022-12-04T08:19:15.142Z,5.79
2022-12-04T08:21:15.100Z,5.63
2022-12-04T08:23:15.074Z,5.48
2022-12-04T08:25:15.121Z,5.18
2022-12-04T08:27:15.113Z,5.61
2022-12-04T08:30:19.749Z,6.2
2022-12-04T08:32:19.730Z,6.08
2022-12-04T08:34:19.800Z,6.45
2022-12-04T08:36:19.696Z,6.6
2022-12-04T08:38:19.687Z,6.8
2022-12-04T08:40:19.735Z,6.87
2022-12-04T08:42:19.683Z,7.04
2022-12-04T08:45:40.993Z,6.84
2022-12-04T08:47:40.953Z,7.09
2022-12-04T08:49:40.973Z,7.48
2022-12-04T08:51:40.946Z,7.35
2022-12-04T08:53:40.973Z,7.23
2022-12-04T08:55:40.974Z,7.17
2022-12-04T08:57:40.948Z,7.09
2022-12-04T09:00:48.421Z,6.6
2022-12-04T09:02:48.430Z,7.11
2022-12-04T09:04:48.531Z,7.26
2022-12-04T09:06:48.399Z,6.94
2022-12-04T09:08:48.397Z,7.21
2022-12-04T09:10:48.457Z,6.68
2022-12-04T09:12:48.425Z,6.71
2022-12-04T09:16:19.677Z,6.92
2022-12-04T09:18:19.577Z,7.54
2022-12-04T09:20:19.600Z,7.58
2022-12-04T09:22:19.540Z,7.46
2022-12-04T09:24:19.576Z,7.7
2022-12-04T09:26:19.604Z,6.58
2022-12-04T09:28:19.531Z,6.37
2022-12-04T09:30:55.775Z,7.36
2022-12-04T09:32:55.664Z,7.07
2022-12-04T09:34:55.639Z,7.18
2022-12-04T09:36:55.627Z,7.92
2022-12-04T09:38:55.631Z,7.92
2022-12-04T09:40:55.673Z,8.03
2022-12-04T09:42:55.645Z,7.6
2022-12-04T09:45:58.475Z,8.09
2022-12-04T09:47:58.417Z,8.35
2022-12-04T09:49:58.728Z,8.04
2022-12-04T09:51:58.417Z,8.15
2022-12-04T09:53:58.432Z,8.31
2022-12-04T09:55:58.434Z,8.02
2022-12-04T09:58:01.725Z,8.09
2022-12-04T09:59:58.661Z,8.91
2022-12-04T10:01:27.289Z,9.22
2022-12-04T10:03:27.436Z,9
2022-12-04T10:05:27.307Z,8.59
2022-12-04T10:07:27.360Z,8.52
2022-12-04T10:09:27.337Z,8.22
2022-12-04T10:11:32.176Z,8.2
2022-12-04T10:13:27.292Z,8.84
2022-12-04T10:16:16.483Z,8.84
2022-12-04T10:18:16.439Z,9.01
2022-12-04T10:20:16.450Z,8.88
2022-12-04T10:22:16.492Z,8.13
2022-12-04T10:24:16.527Z,9.01
2022-12-04T10:26:16.437Z,9.58
2022-12-04T10:28:16.449Z,9.15
2022-12-04T10:30:16.465Z,9.12
2022-12-04T10:32:14.917Z,9.51
2022-12-04T10:34:14.950Z,10.05
2022-12-04T10:36:14.827Z,9.98
2022-12-04T10:38:14.832Z,10.44
2022-12-04T10:40:14.848Z,9.81
2022-12-04T10:42:14.835Z,9.24
2022-12-04T10:44:14.902Z,9.79
2022-12-04T10:47:22.145Z,10.72
2022-12-04T10:49:22.149Z,10.63
2022-12-04T10:51:22.053Z,9.67
2022-12-04T10:53:22.107Z,9.5
2022-12-04T10:55:22.083Z,8.94
2022-12-04T10:57:22.089Z,9.32
2022-12-04T10:59:22.062Z,9.17
2022-12-04T11:02:13.150Z,9.62
2022-12-04T11:04:12.984Z,9.99
2022-12-04T11:06:12.946Z,9.27
2022-12-04T11:08:16.879Z,9.29
2022-12-04T11:10:12.935Z,9.78
2022-12-04T11:12:12.958Z,9.47
2022-12-04T11:14:12.998Z,9.51
2022-12-04T11:17:05.726Z,9.78
2022-12-04T11:19:05.722Z,10.01
2022-12-04T11:21:05.713Z,9.29
2022-12-04T11:23:05.723Z,9
2022-12-04T11:25:05.686Z,8.73
2022-12-04T11:27:05.687Z,8.38
2022-12-04T11:29:05.678Z,9.28
2022-12-04T11:32:37.657Z,10.1
2022-12-04T11:34:37.807Z,9.41
2022-12-04T11:36:37.564Z,9.67
2022-12-04T11:38:37.675Z,9.55
2022-12-04T11:40:37.782Z,9.05
2022-12-04T11:42:37.560Z,8.82
2022-12-04T11:44:37.488Z,9.19
2022-12-04T11:47:33.812Z,9.58
2022-12-04T11:49:33.868Z,8.51
2022-12-04T11:51:33.822Z,8.55
2022-12-04T11:53:33.878Z,8.93
2022-12-04T11:55:33.816Z,8.67
2022-12-04T11:57:33.806Z,9.06
2022-12-04T11:59:33.868Z,9.24
2022-12-04T12:02:36.331Z,9.02
2022-12-04T12:04:36.264Z,8.96
2022-12-04T12:06:36.213Z,9.38
2022-12-04T12:08:36.256Z,9.11
2022-12-04T12:10:40.141Z,9.58
2022-12-04T12:12:36.209Z,8.94
2022-12-04T12:14:36.254Z,9.23
2022-12-04T12:17:30.357Z,9.3
2022-12-04T12:19:30.390Z,9.76
2022-12-04T12:21:30.488Z,10.08
2022-12-04T12:23:30.354Z,9.85
2022-12-04T12:25:30.379Z,9.6
2022-12-04T12:27:30.331Z,8.68
2022-12-04T12:29:30.375Z,9.31
2022-12-04T12:31:30.461Z,9.7
2022-12-04T12:33:16.479Z,9.05
2022-12-04T12:35:16.537Z,9.36
2022-12-04T12:37:16.465Z,10
2022-12-04T12:39:16.510Z,9.77
2022-12-04T12:41:16.520Z,9.35
2022-12-04T12:43:16.556Z,9.17
2022-12-04T12:45:16.471Z,9.65
2022-12-04T12:48:38.516Z,10.33
2022-12-04T12:50:38.484Z,10.61
2022-12-04T12:52:38.696Z,10.69
2022-12-04T12:54:38.521Z,10.09
2022-12-04T12:56:38.495Z,10.31
2022-12-04T12:58:38.469Z,10.16
2022-12-04T13:00:38.466Z,9.74
2022-12-04T13:03:55.162Z,10.19
2022-12-04T13:05:55.099Z,9.98
2022-12-04T13:07:55.187Z,10.13
2022-12-04T13:09:55.443Z,10.39
2022-12-04T13:11:55.133Z,10.48
2022-12-04T13:13:55.144Z,10.71
2022-12-04T13:15:55.081Z,10.69
2022-12-04T13:18:20.922Z,10.27
2022-12-04T13:20:20.887Z,10.19
2022-12-04T13:22:20.881Z,10.38
2022-12-04T13:24:20.905Z,10.37
2022-12-04T13:26:20.864Z,10.28
2022-12-04T13:28:20.956Z,10.2
2022-12-04T13:30:20.885Z,10.14
2022-12-04T13:34:15.401Z,10.27
2022-12-04T13:36:15.419Z,10.12
2022-12-04T13:38:15.383Z,10.18
2022-12-04T13:40:15.386Z,10.25
2022-12-04T13:42:15.370Z,10.03
2022-12-04T13:44:15.718Z,9.94
2022-12-04T13:46:15.483Z,9.93
2022-12-04T13:48:52.380Z,9.95
2022-12-04T13:50:52.429Z,9.85
2022-12-04T13:52:52.394Z,9.87
2022-12-04T13:54:52.449Z,9.83
2022-12-04T13:56:52.377Z,9.76
2022-12-04T13:58:52.387Z,9.74
2022-12-04T14:00:52.538Z,9.85
2022-12-04T14:04:05.927Z,9.94
2022-12-04T14:06:05.945Z,9.71
2022-12-04T14:08:07.704Z,9.53
2022-12-04T14:10:05.874Z,9.38
2022-12-04T14:12:05.904Z,9.36
2022-12-04T14:14:08.199Z,9.42
2022-12-04T14:16:05.887Z,9.33
2022-12-04T14:19:07.803Z,9.29
2022-12-04T14:21:07.730Z,8.95
2022-12-04T14:23:07.726Z,8.78
2022-12-04T14:25:07.784Z,8.65
2022-12-04T14:27:12.043Z,8.48
2022-12-04T14:29:07.725Z,8.31
2022-12-04T14:31:07.846Z,8.53
2022-12-04T14:34:44.083Z,8.37
2022-12-04T14:36:44.065Z,8.38
2022-12-04T14:38:44.061Z,8.52
2022-12-04T14:40:44.089Z,8.49
2022-12-04T14:42:44.043Z,8.11
2022-12-04T14:44:44.054Z,8.18
2022-12-04T14:46:44.159Z,8.1
2022-12-04T14:49:32.665Z,7.93
2022-12-04T14:51:32.686Z,7.88
2022-12-04T14:53:32.691Z,7.74
2022-12-04T14:55:32.695Z,7.91
2022-12-04T14:57:32.664Z,7.97
2022-12-04T14:59:32.659Z,7.85
2022-12-04T15:01:32.685Z,7.68
2022-12-04T15:05:04.957Z,7.8
2022-12-04T15:07:04.972Z,7.45
2022-12-04T15:09:04.975Z,7.6
2022-12-04T15:11:04.938Z,7.64
2022-12-04T15:13:04.928Z,7.74
2022-12-04T15:15:04.928Z,7.8
2022-12-04T15:17:04.920Z,7.51
2022-12-04T15:20:19.634Z,7.47
2022-12-04T15:22:19.654Z,7.17
2022-12-04T15:24:19.641Z,6.8
2022-12-04T15:26:19.621Z,7.07
2022-12-04T15:28:19.641Z,7.4
2022-12-04T15:30:19.633Z,7.58
2022-12-04T15:32:19.635Z,7.43
2022-12-04T15:34:47.806Z,7.7
2022-12-04T15:36:47.808Z,7.41
2022-12-04T15:38:47.889Z,7.7
2022-12-04T15:40:47.813Z,7.51
2022-12-04T15:42:47.819Z,7.36
2022-12-04T15:44:47.822Z,7.52
2022-12-04T15:46:47.960Z,7.47
2022-12-04T15:50:34.927Z,7.1
2022-12-04T15:52:34.964Z,7.42
2022-12-04T15:54:35.004Z,7.39
2022-12-04T15:56:34.954Z,7.44
2022-12-04T15:58:34.914Z,7.37
2022-12-04T16:00:34.933Z,7.44
2022-12-04T16:02:34.891Z,7.45
2022-12-04T16:05:09.604Z,7.36
2022-12-04T16:07:09.601Z,7.16
2022-12-04T16:09:09.437Z,7.11
2022-12-04T16:11:09.684Z,7.48
2022-12-04T16:13:09.638Z,7.55
2022-12-04T16:15:09.428Z,7.52
2022-12-04T16:17:09.513Z,7.45
2022-12-04T16:20:53.023Z,7.53
2022-12-04T16:22:53.053Z,7.55
2022-12-04T16:24:53.037Z,7.43
2022-12-04T16:26:53.092Z,7.19
2022-12-04T16:28:53.065Z,7.17
2022-12-04T16:30:53.088Z,6.94
2022-12-04T16:32:53.019Z,7.04
2022-12-04T16:35:37.806Z,7.14
2022-12-04T16:37:37.796Z,7.14
2022-12-04T16:39:41.285Z,7.07
2022-12-04T16:41:37.798Z,7.05
2022-12-04T16:43:37.875Z,6.93
2022-12-04T16:45:37.812Z,6.9
2022-12-04T16:47:37.765Z,6.86
2022-12-04T16:50:45.615Z,6.83
2022-12-04T16:52:45.654Z,6.79
2022-12-04T16:54:45.608Z,6.78
2022-12-04T16:56:45.629Z,6.75
2022-12-04T16:58:45.632Z,6.72
2022-12-04T17:00:45.617Z,6.72
2022-12-04T17:02:45.597Z,6.56
2022-12-04T17:05:59.383Z,6.42
2022-12-04T17:07:59.386Z,6.39
2022-12-04T17:09:59.323Z,6.29
2022-12-04T17:11:59.356Z,6.3
2022-12-04T17:13:59.341Z,6.24
2022-12-04T17:15:59.420Z,6.22
2022-12-04T17:17:59.363Z,6.24
2022-12-04T17:20:42.927Z,6.23
2022-12-04T17:22:42.961Z,6.31
2022-12-04T17:24:48.250Z,6.33
2022-12-04T17:26:42.921Z,6.26
2022-12-04T17:28:42.922Z,6.16
2022-12-04T17:30:42.947Z,5.96
2022-12-04T17:32:42.904Z,6.23
2022-12-04T17:34:42.930Z,6.41
2022-12-04T17:36:37.116Z,6.42
2022-12-04T17:38:37.101Z,6.42
2022-12-04T17:40:37.123Z,6.49
2022-12-04T17:42:37.084Z,6.46
2022-12-04T17:44:37.100Z,6.53
2022-12-04T17:46:37.168Z,6.53
2022-12-04T17:48:37.086Z,6.55
2022-12-04T17:51:35.394Z,6.12
2022-12-04T17:53:35.348Z,6.35
2022-12-04T17:55:35.382Z,6.4
2022-12-04T17:57:35.319Z,6.46
2022-12-04T17:59:35.379Z,6.3
2022-12-04T18:01:35.363Z,6.4
2022-12-04T18:03:35.362Z,6.28
2022-12-04T18:06:20.178Z,6.34
2022-12-04T18:08:20.290Z,6.29
2022-12-04T18:10:20.462Z,6.16
2022-12-04T18:12:20.464Z,6.24
2022-12-04T18:14:20.390Z,6.36
2022-12-04T18:16:20.631Z,5.98
2022-12-04T18:18:20.568Z,6.25
2022-12-04T18:21:55.824Z,6.08
2022-12-04T18:23:55.840Z,6.18
2022-12-04T18:25:56.108Z,6.29
2022-12-04T18:27:56.187Z,5.65
2022-12-04T18:29:56.270Z,6.09
2022-12-04T18:31:55.856Z,6.11
2022-12-04T18:33:55.729Z,6.04
2022-12-04T18:37:00.926Z,6.22
2022-12-04T18:39:00.813Z,6.14
2022-12-04T18:41:00.856Z,5.65
2022-12-04T18:43:00.855Z,5.62
2022-12-04T18:45:00.833Z,5.84
2022-12-04T18:47:00.818Z,5.98
2022-12-04T18:49:00.918Z,5.69
2022-12-04T18:51:48.556Z,5.76
2022-12-04T18:53:44.520Z,5.88
2022-12-04T18:55:44.508Z,6.07
2022-12-04T18:57:44.552Z,6.19
2022-12-04T18:59:44.536Z,6.18
2022-12-04T19:01:44.563Z,6.09
2022-12-04T19:03:44.484Z,6.34
2022-12-04T19:05:44.495Z,6.36
2022-12-04T19:07:18.845Z,6.38
2022-12-04T19:09:18.810Z,6.34
2022-12-04T19:11:18.903Z,6.17
2022-12-04T19:13:18.817Z,6.23
2022-12-04T19:15:19.161Z,6.24
2022-12-04T19:17:18.871Z,6.49
2022-12-04T19:19:18.862Z,6.39
2022-12-04T19:22:57.661Z,6.56
2022-12-04T19:24:57.638Z,6.54
2022-12-04T19:26:57.683Z,6.57
2022-12-04T19:28:57.573Z,6.53
2022-12-04T19:30:57.586Z,6.58
2022-12-04T19:32:57.623Z,6.7
2022-12-04T19:34:57.823Z,6.73
2022-12-04T19:37:28.372Z,6.6
2022-12-04T19:39:28.419Z,6.65
2022-12-04T19:41:28.431Z,6.76
2022-12-04T19:43:28.367Z,6.75
2022-12-04T19:45:28.517Z,6.8
2022-12-04T19:47:28.520Z,6.99
2022-12-04T19:49:28.448Z,6.99
2022-12-04T19:53:13.134Z,7.1
2022-12-04T19:55:13.131Z,6.73
2022-12-04T19:57:13.277Z,6.7
2022-12-04T19:59:13.191Z,6.82
2022-12-04T20:01:13.335Z,6.92
2022-12-04T20:03:13.136Z,6.89
2022-12-04T20:05:13.158Z,6.89
2022-12-04T20:08:19.381Z,6.96
2022-12-04T20:10:19.443Z,7.02
2022-12-04T20:12:19.421Z,6.94
2022-12-04T20:14:19.405Z,6.74
2022-12-04T20:16:19.592Z,6.9
2022-12-04T20:18:19.380Z,6.86
2022-12-04T20:20:19.393Z,6.9
2022-12-04T20:23:23.707Z,6.85
2022-12-04T20:25:23.705Z,6.87
2022-12-04T20:27:23.746Z,6.83
2022-12-04T20:29:23.718Z,6.81
2022-12-04T20:31:23.795Z,6.79
2022-12-04T20:33:23.689Z,6.82
2022-12-04T20:35:23.689Z,6.83
2022-12-04T20:38:28.392Z,6.81
2022-12-04T20:40:28.423Z,6.71
2022-12-04T20:42:33.241Z,6.56
2022-12-04T20:44:28.455Z,6.53
2022-12-04T20:46:28.590Z,6.48
2022-12-04T20:48:28.373Z,6.37
2022-12-04T20:50:28.412Z,6.34
2022-12-04T20:53:35.584Z,6.3
2022-12-04T20:55:35.628Z,6.24
2022-12-04T20:57:35.615Z,6.14
2022-12-04T20:59:35.572Z,6.22
2022-12-04T21:01:35.694Z,6.26
2022-12-04T21:03:35.595Z,6.36
2022-12-04T21:05:35.627Z,6.4
2022-12-04T21:08:36.405Z,6.45
2022-12-04T21:10:36.413Z,6.55
2022-12-04T21:12:41.564Z,6.68
2022-12-04T21:14:36.419Z,6.68
2022-12-04T21:16:36.419Z,6.58
2022-12-04T21:18:36.395Z,6.59
2022-12-04T21:20:36.384Z,6.54
2022-12-04T21:23:25.783Z,6.47
2022-12-04T21:25:25.776Z,6.32
2022-12-04T21:27:25.772Z,6.32
2022-12-04T21:29:25.784Z,6.37
2022-12-04T21:31:25.842Z,6.38
2022-12-04T21:33:25.771Z,6.39
2022-12-04T21:35:25.819Z,6.48
2022-12-04T21:38:28.752Z,6.55
2022-12-04T21:40:28.780Z,6.6
2022-12-04T21:42:28.764Z,6.56
2022-12-04T21:44:28.746Z,6.51
2022-12-04T21:46:28.860Z,6.54
2022-12-04T21:48:28.760Z,6.5
2022-12-04T21:50:28.813Z,6.6
2022-12-04T21:52:28.745Z,6.81
2022-12-04T21:53:42.634Z,6.75
2022-12-04T21:55:42.090Z,6.5
2022-12-04T21:57:42.033Z,6.69
2022-12-04T21:59:42.085Z,6.82
2022-12-04T22:01:42.093Z,6.91
2022-12-04T22:03:42.070Z,6.91
2022-12-04T22:05:42.092Z,6.89
2022-12-04T22:07:42.080Z,6.96
2022-12-04T22:09:06.777Z,6.87
2022-12-04T22:11:06.829Z,6.89
2022-12-04T22:13:06.779Z,7.04
2022-12-04T22:15:06.794Z,7.13
2022-12-04T22:17:06.786Z,7.09
2022-12-04T22:19:06.823Z,7.11
2022-12-04T22:21:06.764Z,7.05
2022-12-04T22:24:15.195Z,6.87
2022-12-04T22:26:15.179Z,7.07
2022-12-04T22:28:15.197Z,7.06
2022-12-04T22:30:15.176Z,7.09
2022-12-04T22:32:15.212Z,7.07
2022-12-04T22:34:15.173Z,7.06
2022-12-04T22:36:15.183Z,7.02
2022-12-04T22:39:37.662Z,7.12
2022-12-04T22:41:37.670Z,7.12
2022-12-04T22:43:40.781Z,7.07
2022-12-04T22:45:37.682Z,6.7
2022-12-04T22:47:37.697Z,6.72
2022-12-04T22:49:37.659Z,6.83
2022-12-04T22:51:37.625Z,6.94
2022-12-04T22:54:32.458Z,7.04
2022-12-04T22:56:32.392Z,6.94
2022-12-04T22:58:32.379Z,6.97
2022-12-04T23:00:32.435Z,7.05
2022-12-04T23:02:32.397Z,7.04
2022-12-04T23:04:32.545Z,6.83
2022-12-04T23:06:32.424Z,6.55
2022-12-04T23:09:40.788Z,6.64
2022-12-04T23:11:40.761Z,6.69
2022-12-04T23:13:40.767Z,6.47
2022-12-04T23:15:40.799Z,6.4
2022-12-04T23:17:40.748Z,6.74
2022-12-04T23:19:40.767Z,6.77
2022-12-04T23:21:40.754Z,6.96
2022-12-04T23:24:46.929Z,7.06
2022-12-04T23:26:46.886Z,7.06
2022-12-04T23:28:46.915Z,7.01
2022-12-04T23:30:46.873Z,7.04
2022-12-04T23:32:46.873Z,7.11
2022-12-04T23:34:46.968Z,7.15
2022-12-04T23:36:46.933Z,7.02
2022-12-04T23:40:33.798Z,7.01
2022-12-04T23:42:33.787Z,6.95
2022-12-04T23:44:33.822Z,6.81
2022-12-04T23:46:33.777Z,6.85
2022-12-04T23:48:33.778Z,6.77
2022-12-04T23:50:33.841Z,6.74
2022-12-04T23:52:33.764Z,6.71
2022-12-04T23:55:52.262Z,6.8
2022-12-04T23:57:52.217Z,6.81
2022-12-04T23:59:52.224Z,6.74
